createdAt,value
2018-10-06T00:01:51.230Z,98105.97
2018-10-06T00:04:20.039Z,98110.82
2018-10-06T00:06:48.992Z,98110.22
2018-10-06T00:09:17.818Z,98114.38
2018-10-06T00:11:46.645Z,98113.47
2018-10-06T00:14:15.439Z,98121.61
2018-10-06T00:16:44.310Z,98129.21
2018-10-06T00:19:13.067Z,98131.75
2018-10-06T00:21:42.470Z,98124.80
2018-10-06T00:24:11.386Z,98124.03
2018-10-06T00:26:40.225Z,98123.67
2018-10-06T00:29:08.996Z,98121.45
2018-10-06T00:31:37.844Z,98122.72
2018-10-06T00:34:06.511Z,98116.45
2018-10-06T00:36:35.270Z,98113.17
2018-10-06T00:39:04.529Z,98100.88
2018-10-06T00:41:33.343Z,98100.78
2018-10-06T00:44:02.039Z,98100.89
2018-10-06T00:46:30.885Z,98101.11
2018-10-06T00:48:59.571Z,98099.16
2018-10-06T00:51:28.155Z,98099.72
2018-10-06T00:53:56.831Z,98093.23
2018-10-06T00:56:25.673Z,98092.91
2018-10-06T00:58:54.504Z,98095.29
2018-10-06T01:01:23.185Z,98091.30
2018-10-06T01:03:51.901Z,98093.30
2018-10-06T01:06:20.618Z,98092.29
2018-10-06T01:08:49.430Z,98089.53
2018-10-06T01:11:18.218Z,98091.03
2018-10-06T01:13:47.208Z,98088.86
2018-10-06T01:16:16.197Z,98089.63
2018-10-06T01:18:45.021Z,98085.09
2018-10-06T01:21:13.836Z,98088.73
2018-10-06T01:23:42.588Z,98092.02
2018-10-06T01:26:11.398Z,98085.30
2018-10-06T01:28:40.117Z,98080.05
2018-10-06T01:31:08.937Z,98083.60
2018-10-06T01:33:37.788Z,98072.58
2018-10-06T01:36:06.602Z,98069.20
2018-10-06T01:38:35.498Z,98070.53
2018-10-06T01:41:04.449Z,98069.14
2018-10-06T01:43:33.397Z,98069.52
2018-10-06T01:46:02.199Z,98075.07
2018-10-06T01:48:31.048Z,98070.45
2018-10-06T01:50:59.957Z,98070.84
2018-10-06T01:53:28.674Z,98069.62
2018-10-06T01:55:57.657Z,98064.97
2018-10-06T01:58:27.768Z,98055.86
2018-10-06T02:00:56.653Z,98060.68
2018-10-06T02:03:25.729Z,98064.41
2018-10-06T02:05:54.766Z,98066.77
2018-10-06T02:08:24.681Z,98075.73
2018-10-06T02:10:53.745Z,98069.20
2018-10-06T02:13:22.537Z,98067.88
2018-10-06T02:15:51.599Z,98060.20
2018-10-06T02:18:21.269Z,98063.88
2018-10-06T02:20:50.216Z,98061.03
2018-10-06T02:23:19.063Z,98064.28
2018-10-06T02:25:48.053Z,98069.50
2018-10-06T02:28:16.675Z,98067.78
2018-10-06T02:30:45.499Z,98075.61
2018-10-06T02:33:14.339Z,98072.42
2018-10-06T02:35:42.876Z,98073.93
2018-10-06T02:38:11.717Z,98067.32
2018-10-06T02:40:40.388Z,98067.22
2018-10-06T02:43:09.273Z,98060.86
2018-10-06T02:45:38.380Z,98065.38
2018-10-06T02:48:07.232Z,98068.51
2018-10-06T02:50:36.041Z,98067.79
2018-10-06T02:53:04.660Z,98061.08
2018-10-06T02:55:33.600Z,98067.28
2018-10-06T02:58:03.228Z,98058.28
2018-10-06T03:00:31.929Z,98056.95
2018-10-06T03:03:01.601Z,98058.28
2018-10-06T03:05:30.980Z,98055.19
2018-10-06T03:08:00.490Z,98051.59
2018-10-06T03:10:29.518Z,98049.08
2018-10-06T03:12:58.247Z,98049.98
2018-10-06T03:15:27.671Z,98055.73
2018-10-06T03:17:56.371Z,98049.55
2018-10-06T03:20:25.097Z,98052.53
2018-10-06T03:22:54.750Z,98048.55
2018-10-06T03:25:23.575Z,98051.34
2018-10-06T03:27:52.568Z,98038.64
2018-10-06T03:30:21.278Z,98039.39
2018-10-06T03:32:50.100Z,98045.92
2018-10-06T03:35:19.084Z,98043.41
2018-10-06T03:37:48.053Z,98042.95
2018-10-06T03:40:16.802Z,98043.23
2018-10-06T03:42:46.730Z,98035.27
2018-10-06T03:45:15.447Z,98029.73
2018-10-06T03:47:44.245Z,98024.75
2018-10-06T03:50:12.857Z,98026.91
2018-10-06T03:52:41.659Z,98022.41
2018-10-06T03:55:10.360Z,98024.14
2018-10-06T03:57:39.284Z,98028.09
2018-10-06T04:00:07.932Z,98027.33
2018-10-06T04:02:36.742Z,98029.73
2018-10-06T04:05:05.696Z,98022.22
2018-10-06T04:07:34.530Z,98015.67
2018-10-06T04:10:03.147Z,98017.83
2018-10-06T04:12:31.948Z,98016.81
2018-10-06T04:15:00.777Z,98014.06
2018-10-06T04:17:29.328Z,98023.12
2018-10-06T04:19:58.492Z,98016.66
2018-10-06T04:22:27.317Z,98012.66
2018-10-06T04:24:56.196Z,98015.27
2018-10-06T04:27:25.040Z,98015.52
2018-10-06T04:29:54.025Z,98020.20
2018-10-06T04:32:22.848Z,98026.31
2018-10-06T04:34:51.805Z,98020.22
2018-10-06T04:37:20.637Z,98021.14
2018-10-06T04:39:49.579Z,98021.63
2018-10-06T04:42:18.420Z,98015.58
2018-10-06T04:44:47.268Z,98021.71
2018-10-06T04:47:16.102Z,98023.27
2018-10-06T04:49:44.920Z,98019.46
2018-10-06T04:52:13.729Z,98018.09
2018-10-06T04:54:42.577Z,98020.22
2018-10-06T04:57:11.387Z,98028.28
2018-10-06T04:59:40.276Z,98028.70
2018-10-06T05:02:09.108Z,98032.56
2018-10-06T05:04:38.089Z,98032.16
2018-10-06T05:07:07.098Z,98025.28
2018-10-06T05:09:35.714Z,98028.66
2018-10-06T05:12:04.671Z,98027.27
2018-10-06T05:14:33.543Z,98022.23
2018-10-06T05:17:02.320Z,98023.45
2018-10-06T05:19:31.265Z,98027.73
2018-10-06T05:22:00.096Z,98021.88
2018-10-06T05:24:28.990Z,98029.42
2018-10-06T05:26:57.730Z,98039.39
2018-10-06T05:29:26.606Z,98040.51
2018-10-06T05:31:55.469Z,98042.16
2018-10-06T05:34:24.169Z,98037.84
2018-10-06T05:36:53.020Z,98036.98
2018-10-06T05:39:21.895Z,98043.48
2018-10-06T05:41:50.883Z,98039.77
2018-10-06T05:44:19.627Z,98044.26
2018-10-06T05:46:48.512Z,98048.59
2018-10-06T05:49:17.376Z,98052.13
2018-10-06T05:51:46.208Z,98052.25
2018-10-06T05:54:15.018Z,98064.43
2018-10-06T05:56:43.869Z,98061.91
2018-10-06T05:59:12.765Z,98064.12
2018-10-06T06:01:41.358Z,98058.00
2018-10-06T06:04:10.187Z,98062.09
2018-10-06T06:06:39.050Z,98054.48
2018-10-06T06:09:08.241Z,98055.74
2018-10-06T06:11:37.125Z,98057.50
2018-10-06T06:14:05.946Z,98052.08
2018-10-06T06:16:34.840Z,98047.78
2018-10-06T06:19:03.561Z,98046.63
2018-10-06T06:21:32.182Z,98045.09
2018-10-06T06:24:00.900Z,98038.47
2018-10-06T06:26:29.763Z,98033.28
2018-10-06T06:28:58.681Z,98037.80
2018-10-06T06:31:27.749Z,98042.20
2018-10-06T06:33:56.226Z,98047.95
2018-10-06T06:36:25.083Z,98042.14
2018-10-06T06:38:53.891Z,98042.77
2018-10-06T06:41:22.754Z,98035.02
2018-10-06T06:43:51.528Z,98041.56
2018-10-06T06:46:20.332Z,98038.62
2018-10-06T06:48:49.153Z,98035.06
2018-10-06T06:51:18.134Z,98035.28
2018-10-06T06:53:46.964Z,98037.73
2018-10-06T06:56:15.872Z,98030.22
2018-10-06T06:58:44.758Z,98029.77
2018-10-06T07:01:13.472Z,98027.91
2018-10-06T07:03:42.261Z,98033.70
2018-10-06T07:06:11.260Z,98041.01
2018-10-06T07:08:40.069Z,98046.02
2018-10-06T07:11:08.834Z,98052.80
2018-10-06T07:13:37.871Z,98048.36
2018-10-06T07:16:07.009Z,98047.91
2018-10-06T07:18:36.252Z,98054.31
2018-10-06T07:21:05.257Z,98044.63
2018-10-06T07:23:34.086Z,98043.44
2018-10-06T07:26:03.045Z,98044.84
2018-10-06T07:28:31.973Z,98040.23
2018-10-06T07:31:00.752Z,98049.64
2018-10-06T07:33:29.580Z,98048.52
2018-10-06T07:35:58.381Z,98051.09
2018-10-06T07:38:27.217Z,98051.48
2018-10-06T07:40:55.800Z,98054.14
2018-10-06T07:43:24.647Z,98049.06
2018-10-06T07:45:53.389Z,98044.86
2018-10-06T07:48:22.278Z,98043.83
2018-10-06T07:50:51.857Z,98052.25
2018-10-06T07:53:20.679Z,98058.41
2018-10-06T07:55:49.496Z,98071.70
2018-10-06T07:58:18.422Z,98066.52
2018-10-06T08:00:47.160Z,98053.72
2018-10-06T08:03:16.016Z,98054.66
2018-10-06T08:05:44.833Z,98054.48
2018-10-06T08:08:13.573Z,98051.17
2018-10-06T08:10:42.268Z,98053.59
2018-10-06T08:13:11.002Z,98051.66
2018-10-06T08:15:39.810Z,98054.08
2018-10-06T08:18:08.657Z,98043.39
2018-10-06T08:20:37.470Z,98042.59
2018-10-06T08:23:06.372Z,98051.27
2018-10-06T08:25:35.068Z,98047.02
2018-10-06T08:28:03.928Z,98046.72
2018-10-06T08:30:32.753Z,98050.19
2018-10-06T08:33:01.727Z,98047.05
2018-10-06T08:35:30.431Z,98046.86
2018-10-06T08:37:59.367Z,98055.05
2018-10-06T08:40:28.054Z,98054.06
2018-10-06T08:42:56.908Z,98053.96
2018-10-06T08:45:25.630Z,98052.38
2018-10-06T08:47:54.369Z,98053.39
2018-10-06T08:50:23.105Z,98054.35
2018-10-06T08:52:51.957Z,98057.56
2018-10-06T08:55:20.544Z,98052.36
2018-10-06T08:57:49.827Z,98047.91
2018-10-06T09:00:18.747Z,98051.16
2018-10-06T09:02:47.672Z,98049.61
2018-10-06T09:05:16.514Z,98035.73
2018-10-06T09:07:45.368Z,98044.88
2018-10-06T09:10:14.185Z,98050.26
2018-10-06T09:12:43.221Z,98041.14
2018-10-06T09:15:12.084Z,98044.69
2018-10-06T09:17:40.903Z,98043.69
2018-10-06T09:20:09.886Z,98031.82
2018-10-06T09:22:38.665Z,98020.69
2018-10-06T09:25:07.784Z,98020.68
2018-10-06T09:27:36.534Z,98022.86
2018-10-06T09:30:05.273Z,98019.50
2018-10-06T09:34:03.229Z,98015.77
2018-10-06T09:36:31.960Z,98022.52
2018-10-06T09:39:00.872Z,98016.86
2018-10-06T09:41:29.745Z,98021.47
2018-10-06T09:43:59.238Z,98005.56
2018-10-06T09:46:28.062Z,98001.64
2018-10-06T09:48:57.042Z,97994.70
2018-10-06T09:51:26.013Z,97989.86
2018-10-06T09:53:55.001Z,97985.59
2018-10-06T09:56:23.889Z,97981.17
2018-10-06T09:58:52.636Z,97982.05
2018-10-06T10:01:26.706Z,97972.81
2018-10-06T10:04:00.795Z,97986.83
2018-10-06T10:06:29.624Z,97990.22
2018-10-06T10:08:58.445Z,97993.78
2018-10-06T10:11:27.291Z,97985.32
2018-10-06T10:13:56.299Z,97991.38
2018-10-06T10:16:25.165Z,97988.84
2018-10-06T10:18:54.041Z,97989.38
2018-10-06T10:21:22.884Z,97979.18
2018-10-06T10:23:52.257Z,97982.36
2018-10-06T10:26:21.191Z,97979.73
2018-10-06T10:28:50.242Z,97969.31
2018-10-06T10:31:19.108Z,97969.17
2018-10-06T10:33:48.160Z,97967.78
2018-10-06T10:36:16.997Z,97959.46
2018-10-06T10:38:46.013Z,97960.85
2018-10-06T10:41:15.174Z,97957.22
2018-10-06T10:43:44.579Z,97944.12
2018-10-06T10:46:13.499Z,97944.86
2018-10-06T10:48:42.429Z,97934.61
2018-10-06T10:51:11.338Z,97938.62
2018-10-06T10:53:41.970Z,97938.69
2018-10-06T10:56:11.607Z,97929.80
2018-10-06T10:58:41.366Z,97925.31
2018-10-06T11:01:10.163Z,97912.63
2018-10-06T11:03:38.978Z,97906.77
2018-10-06T11:06:07.872Z,97909.53
2018-10-06T11:08:36.573Z,97892.16
2018-10-06T11:11:05.544Z,97893.12
2018-10-06T11:13:34.965Z,97889.11
2018-10-06T11:16:03.684Z,97883.58
2018-10-06T11:18:32.485Z,97878.43
2018-10-06T11:21:01.358Z,97869.98
2018-10-06T11:23:30.155Z,97865.63
2018-10-06T11:25:58.909Z,97865.42
2018-10-06T11:28:27.736Z,97850.31
2018-10-06T11:30:56.585Z,97844.34
2018-10-06T11:33:25.397Z,97844.64
2018-10-06T11:35:54.415Z,97840.91
2018-10-06T11:38:23.311Z,97846.14
2018-10-06T11:40:52.171Z,97839.37
2018-10-06T11:43:21.218Z,97825.40
2018-10-06T11:45:50.061Z,97826.04
2018-10-06T11:48:18.783Z,97816.94
2018-10-06T11:50:47.787Z,97816.33
2018-10-06T11:53:16.872Z,97801.52
2018-10-06T11:55:45.858Z,97800.86
2018-10-06T11:58:14.825Z,97798.28
2018-10-06T12:00:43.767Z,97795.02
2018-10-06T12:03:12.644Z,97791.16
2018-10-06T12:05:41.528Z,97794.78
2018-10-06T12:08:10.240Z,97787.48
2018-10-06T12:10:39.118Z,97786.55
2018-10-06T12:13:07.926Z,97787.31
2018-10-06T12:15:36.637Z,97776.88
2018-10-06T12:18:06.371Z,97775.22
2018-10-06T12:20:35.538Z,97769.70
2018-10-06T12:23:24.804Z,97764.38
2018-10-06T12:28:58.664Z,97758.29
2018-10-06T12:31:33.093Z,97757.70
2018-10-06T12:34:11.405Z,97753.42
2018-10-06T12:36:44.297Z,97750.36
2018-10-06T12:39:13.976Z,97743.86
2018-10-06T12:41:56.319Z,97742.42
2018-10-06T12:44:25.011Z,97734.61
2018-10-06T12:46:53.867Z,97731.59
2018-10-06T12:49:22.877Z,97734.30
2018-10-06T12:52:06.825Z,97736.19
2018-10-06T12:54:37.375Z,97730.34
2018-10-06T12:57:06.969Z,97725.77
2018-10-06T12:59:36.727Z,97721.83
2018-10-06T13:02:05.672Z,97723.45
2018-10-06T13:04:35.947Z,97724.22
2018-10-06T13:07:06.885Z,97718.20
2018-10-06T13:09:37.825Z,97712.81
2018-10-06T13:12:06.929Z,97706.50
2018-10-06T13:14:35.597Z,97705.67
2018-10-06T13:17:04.343Z,97701.05
2018-10-06T13:19:32.900Z,97694.01
2018-10-06T13:22:01.588Z,97696.59
2018-10-06T13:24:30.671Z,97691.41
2018-10-06T13:27:00.704Z,97689.45
2018-10-06T13:29:29.813Z,97684.20
2018-10-06T13:32:00.253Z,97677.11
2018-10-06T13:34:30.826Z,97673.98
2018-10-06T13:37:00.705Z,97670.33
2018-10-06T13:39:29.401Z,97673.95
2018-10-06T13:41:58.316Z,97660.89
2018-10-06T13:44:27.096Z,97656.54
2018-10-06T13:46:55.970Z,97661.55
2018-10-06T13:49:24.878Z,97656.54
2018-10-06T13:51:53.606Z,97653.52
2018-10-06T13:54:22.301Z,97652.83
2018-10-06T13:56:51.227Z,97650.47
2018-10-06T13:59:20.020Z,97643.80
2018-10-06T14:01:48.805Z,97640.17
2018-10-06T14:04:17.658Z,97635.64
2018-10-06T14:06:46.257Z,97625.94
2018-10-06T14:09:14.976Z,97634.62
2018-10-06T14:11:43.780Z,97632.11
2018-10-06T14:14:12.646Z,97622.80
2018-10-06T14:16:41.294Z,97628.41
2018-10-06T14:19:10.121Z,97625.14
2018-10-06T14:21:38.892Z,97621.86
2018-10-06T14:24:07.701Z,97617.55
2018-10-06T14:26:36.363Z,97622.04
2018-10-06T14:29:05.177Z,97613.30
2018-10-06T14:31:33.842Z,97613.91
2018-10-06T14:34:02.537Z,97608.44
2018-10-06T14:36:31.249Z,97604.44
2018-10-06T14:39:00.077Z,97605.88
2018-10-06T14:41:29.260Z,97611.47
2018-10-06T14:43:58.094Z,97604.23
2018-10-06T14:46:26.762Z,97606.80
2018-10-06T14:48:55.573Z,97610.11
2018-10-06T14:51:24.341Z,97607.14
2018-10-06T14:53:53.029Z,97599.36
2018-10-06T14:56:21.929Z,97604.38
2018-10-06T14:58:50.740Z,97591.73
2018-10-06T15:01:19.613Z,97592.02
2018-10-06T15:03:48.555Z,97590.58
2018-10-06T15:06:17.255Z,97589.95
2018-10-06T15:08:45.948Z,97587.61
2018-10-06T15:11:14.767Z,97568.61
2018-10-06T15:13:43.609Z,97565.83
2018-10-06T15:16:12.303Z,97556.20
2018-10-06T15:18:41.843Z,97558.81
2018-10-06T15:21:10.613Z,97560.34
2018-10-06T15:23:39.453Z,97556.84
2018-10-06T15:26:08.255Z,97557.72
2018-10-06T15:28:36.838Z,97552.30
2018-10-06T15:31:05.630Z,97553.23
2018-10-06T15:33:34.324Z,97547.95
2018-10-06T15:36:03.018Z,97554.77
2018-10-06T15:38:31.846Z,97549.72
2018-10-06T15:41:00.650Z,97551.17
2018-10-06T15:43:29.521Z,97551.89
2018-10-06T15:45:58.366Z,97551.02
2018-10-06T15:48:27.149Z,97551.14
2018-10-06T15:50:55.887Z,97547.10
2018-10-06T15:53:24.669Z,97543.89
2018-10-06T15:55:53.489Z,97536.44
2018-10-06T15:58:22.148Z,97537.61
2018-10-06T16:00:50.991Z,97537.98
2018-10-06T16:03:19.757Z,97533.74
2018-10-06T16:05:48.466Z,97538.52
2018-10-06T16:08:17.244Z,97532.45
2018-10-06T16:10:45.924Z,97540.20
2018-10-06T16:13:14.499Z,97535.98
2018-10-06T16:15:43.229Z,97537.69
2018-10-06T16:18:12.021Z,97531.73
2018-10-06T16:20:40.832Z,97532.07
2018-10-06T16:23:09.493Z,97534.00
2018-10-06T16:25:38.204Z,97541.27
2018-10-06T16:28:06.915Z,97536.54
2018-10-06T16:30:35.743Z,97539.84
2018-10-06T16:33:04.445Z,97538.44
2018-10-06T16:35:33.281Z,97534.08
2018-10-06T16:38:02.012Z,97534.86
2018-10-06T16:40:30.982Z,97524.45
2018-10-06T16:42:59.834Z,97525.59
2018-10-06T16:45:28.516Z,97528.62
2018-10-06T16:47:57.388Z,97524.73
2018-10-06T16:50:26.243Z,97525.61
2018-10-06T16:52:55.699Z,97525.52
2018-10-06T16:55:24.456Z,97522.70
2018-10-06T16:57:53.129Z,97530.06
2018-10-06T17:00:21.889Z,97529.91
2018-10-06T17:02:51.152Z,97530.57
2018-10-06T17:05:20.428Z,97532.29
2018-10-06T17:07:49.215Z,97527.72
2018-10-06T17:10:18.009Z,97534.79
2018-10-06T17:12:46.995Z,97530.05
2018-10-06T17:15:15.789Z,97529.37
2018-10-06T17:17:44.630Z,97530.72
2018-10-06T17:20:13.364Z,97531.32
2018-10-06T17:22:42.833Z,97531.45
2018-10-06T17:25:11.636Z,97531.01
2018-10-06T17:27:40.778Z,97525.16
2018-10-06T17:30:10.390Z,97526.36
2018-10-06T17:32:39.174Z,97528.12
2018-10-06T17:35:07.886Z,97529.58
2018-10-06T17:37:36.690Z,97534.31
2018-10-06T17:40:05.380Z,97527.39
2018-10-06T17:42:34.064Z,97528.27
2018-10-06T17:45:02.765Z,97523.00
2018-10-06T17:47:31.648Z,97521.70
2018-10-06T17:50:00.567Z,97532.77
2018-10-06T17:52:30.189Z,97526.08
2018-10-06T17:54:58.868Z,97525.34
2018-10-06T17:57:27.666Z,97519.50
2018-10-06T17:59:56.747Z,97532.19
2018-10-06T18:02:25.922Z,97537.05
2018-10-06T18:04:54.913Z,97536.82
2018-10-06T18:07:23.702Z,97527.71
2018-10-06T18:09:52.395Z,97528.55
2018-10-06T18:12:23.878Z,97528.02
2018-10-06T18:14:53.028Z,97524.54
2018-10-06T18:17:21.793Z,97529.39
2018-10-06T18:19:50.381Z,97528.07
2018-10-06T18:22:19.269Z,97521.91
2018-10-06T18:24:48.279Z,97526.24
2018-10-06T18:27:17.126Z,97528.38
2018-10-06T18:29:46.102Z,97530.02
2018-10-06T18:32:14.774Z,97530.83
2018-10-06T18:34:43.426Z,97536.77
2018-10-06T18:37:12.289Z,97542.68
2018-10-06T18:39:41.089Z,97535.42
2018-10-06T18:42:09.905Z,97533.83
2018-10-06T18:44:38.768Z,97535.98
2018-10-06T18:47:07.666Z,97534.10
2018-10-06T18:49:36.420Z,97530.02
2018-10-06T18:52:05.486Z,97530.34
2018-10-06T18:54:34.164Z,97530.62
2018-10-06T18:57:02.930Z,97538.45
2018-10-06T18:59:31.769Z,97540.07
2018-10-06T19:02:00.740Z,97545.21
2018-10-06T19:04:29.717Z,97539.03
2018-10-06T19:06:58.464Z,97541.97
2018-10-06T19:09:27.347Z,97546.30
2018-10-06T19:11:56.310Z,97554.89
2018-10-06T19:14:25.245Z,97549.79
2018-10-06T19:16:54.134Z,97548.97
2018-10-06T19:19:23.078Z,97550.30
2018-10-06T19:21:51.909Z,97546.27
2018-10-06T19:24:20.632Z,97550.03
2018-10-06T19:26:49.554Z,97545.71
2018-10-06T19:29:18.374Z,97546.22
2018-10-06T19:31:47.283Z,97545.69
2018-10-06T19:34:16.112Z,97551.03
2018-10-06T19:36:44.942Z,97545.38
2018-10-06T19:39:13.758Z,97549.13
2018-10-06T19:41:42.615Z,97548.05
2018-10-06T19:44:11.457Z,97551.51
2018-10-06T19:46:40.033Z,97558.75
2018-10-06T19:49:08.757Z,97561.14
2018-10-06T19:51:37.639Z,97561.66
2018-10-06T19:54:06.444Z,97563.77
2018-10-06T19:56:35.159Z,97567.51
2018-10-06T19:59:03.759Z,97566.98
2018-10-06T20:01:32.561Z,97563.80
2018-10-06T20:04:01.491Z,97566.44
2018-10-06T20:06:30.293Z,97566.96
2018-10-06T20:08:59.107Z,97568.04
2018-10-06T20:11:27.816Z,97579.83
2018-10-06T20:13:56.685Z,97580.91
2018-10-06T20:16:25.509Z,97583.33
2018-10-06T20:18:55.486Z,97588.12
2018-10-06T20:21:24.310Z,97580.31
2018-10-06T20:23:53.138Z,97584.38
2018-10-06T20:26:21.844Z,97584.63
2018-10-06T20:28:50.700Z,97589.22
2018-10-06T20:31:19.567Z,97587.65
2018-10-06T20:33:48.745Z,97583.34
2018-10-06T20:36:17.681Z,97580.17
2018-10-06T20:38:46.903Z,97585.86
2018-10-06T20:41:15.708Z,97576.25
2018-10-06T20:43:44.432Z,97579.52
2018-10-06T20:46:13.461Z,97577.65
2018-10-06T20:48:42.753Z,97577.39
2018-10-06T20:51:11.805Z,97583.53
2018-10-06T20:53:40.662Z,97575.61
2018-10-06T20:56:09.521Z,97581.55
2018-10-06T20:58:38.376Z,97575.38
2018-10-06T21:01:07.082Z,97580.09
2018-10-06T21:03:35.953Z,97572.14
2018-10-06T21:06:04.722Z,97570.30
2018-10-06T21:08:33.584Z,97574.88
2018-10-06T21:11:04.593Z,97568.67
2018-10-06T21:13:33.443Z,97575.40
2018-10-06T21:16:02.989Z,97591.23
2018-10-06T21:18:35.409Z,97572.98
2018-10-06T21:21:04.153Z,97577.53
2018-10-06T21:23:33.776Z,97575.90
2018-10-06T21:26:02.582Z,97580.70
2018-10-06T21:28:31.596Z,97574.82
2018-10-06T21:31:01.845Z,97580.42
2018-10-06T21:33:30.933Z,97581.14
2018-10-06T21:35:59.882Z,97573.24
2018-10-06T21:38:28.591Z,97573.83
2018-10-06T21:40:58.870Z,97574.81
2018-10-06T21:43:27.574Z,97572.69
2018-10-06T21:45:57.669Z,97566.54
2018-10-06T21:48:26.973Z,97562.23
2018-10-06T21:50:56.036Z,97559.55
2018-10-06T21:53:24.884Z,97559.58
2018-10-06T21:55:54.141Z,97563.08
2018-10-06T21:58:23.871Z,97555.59
2018-10-06T22:01:09.746Z,97562.03
2018-10-06T22:03:39.312Z,97561.08
2018-10-06T22:06:08.154Z,97552.94
2018-10-06T22:08:37.570Z,97555.58
2018-10-06T22:11:06.962Z,97555.84
2018-10-06T22:13:35.885Z,97551.30
2018-10-06T22:16:04.882Z,97563.95
2018-10-06T22:18:33.720Z,97562.05
2018-10-06T22:21:02.685Z,97558.30
2018-10-06T22:23:31.611Z,97557.92
2018-10-06T22:26:00.440Z,97560.70
2018-10-06T22:28:32.821Z,97565.88
2018-10-06T22:31:01.832Z,97558.93
2018-10-06T22:33:30.677Z,97566.27
2018-10-06T22:36:00.240Z,97569.77
2018-10-06T22:38:29.269Z,97567.44
2018-10-06T22:40:58.130Z,97566.13
2018-10-06T22:43:27.022Z,97568.55
2018-10-06T22:45:55.960Z,97564.58
2018-10-06T22:48:26.810Z,97568.34
2018-10-06T22:50:55.740Z,97567.03
2018-10-06T22:53:24.377Z,97559.30
2018-10-06T22:55:53.116Z,97562.23
2018-10-06T22:58:22.917Z,97554.05
2018-10-06T23:00:51.670Z,97557.72
2018-10-06T23:03:20.556Z,97555.13
2018-10-06T23:05:49.128Z,97552.70
2018-10-06T23:08:18.377Z,97552.93
2018-10-06T23:10:47.208Z,97554.30
2018-10-06T23:13:16.057Z,97552.27
2018-10-06T23:15:45.386Z,97546.69
2018-10-06T23:18:14.071Z,97543.98
2018-10-06T23:20:43.061Z,97547.17
2018-10-06T23:23:11.882Z,97543.20
2018-10-06T23:25:40.713Z,97539.73
2018-10-06T23:28:09.452Z,97549.97
2018-10-06T23:30:38.401Z,97545.16
2018-10-06T23:33:07.503Z,97546.17
2018-10-06T23:35:36.429Z,97544.11
2018-10-06T23:38:05.475Z,97545.50
2018-10-06T23:40:34.229Z,97541.70
2018-10-06T23:43:03.071Z,97544.72
2018-10-06T23:45:31.896Z,97541.77
2018-10-06T23:48:00.598Z,97543.45
2018-10-06T23:50:29.333Z,97539.44
2018-10-06T23:52:58.285Z,97541.77
2018-10-06T23:55:27.356Z,97552.56
2018-10-06T23:57:56.213Z,97549.29
